Time;durP1;ratioP1;P1;durP2;ratioP2;P2;SDS_P1;SDS_P2;PMS_P1;PMS_P2;Temp;Humidity;BMP_temperature;BMP_pressure;BME280_temperature;BME280_humidity;BME280_pressure;Samples;Min_cycle;Max_cycle;Signal;HPM_P1;HPM_P2
2024/02/11 00:00:34;;;;;;;9.18;2.80;;;;;;;14.26;41.34;98566.13;5090354;28;20111;-70
2024/02/11 00:03:02;;;;;;;6.80;3.67;;;;;;;14.47;40.26;98570.41;5100707;28;20114;-70
2024/02/11 00:05:27;;;;;;;5.78;2.33;;;;;;;14.61;40.13;98566.97;5110201;28;20498;-71
2024/02/11 00:07:53;;;;;;;13.15;3.03;;;;;;;14.72;39.57;98559.47;5091088;28;20027;-71
2024/02/11 00:10:20;;;;;;;12.10;3.20;;;;;;;14.78;39.45;98553.50;5092865;28;20024;-70
2024/02/11 00:12:45;;;;;;;12.30;2.63;;;;;;;14.81;39.54;98552.72;5089908;28;20132;-71
2024/02/11 00:15:13;;;;;;;7.88;3.20;;;;;;;14.92;38.99;98536.75;5059238;28;20056;-71
2024/02/11 00:17:39;;;;;;;16.80;2.90;;;;;;;15.05;38.28;98542.91;5071395;28;20059;-70
2024/02/11 00:20:15;;;;;;;5.57;2.47;;;;;;;15.09;38.37;98540.13;5074065;28;20488;-71
2024/02/11 00:22:41;;;;;;;7.68;2.30;;;;;;;15.20;38.63;98541.00;5089984;28;20435;-72
2024/02/11 00:25:10;;;;;;;5.28;2.25;;;;;;;15.05;38.42;98544.91;5089659;28;20621;-71
2024/02/11 00:27:42;;;;;;;8.27;2.35;;;;;;;15.25;37.64;98539.84;5086406;28;20051;-72
2024/02/11 00:30:09;;;;;;;7.95;2.85;;;;;;;15.34;37.41;98545.97;5104464;28;20031;-71
2024/02/11 00:32:35;;;;;;;23.38;3.80;;;;;;;15.40;36.97;98569.78;5110050;28;20015;-70
2024/02/11 00:35:01;;;;;;;18.30;3.28;;;;;;;15.40;37.08;98580.22;5109993;28;20031;-71
2024/02/11 00:37:29;;;;;;;8.65;5.72;;;;;;;15.34;40.04;98573.34;5110093;28;20131;-71
2024/02/11 00:39:56;;;;;;;13.93;7.05;;;;;;;14.96;44.24;98579.00;5108834;28;20034;-72
2024/02/11 00:42:27;;;;;;;21.13;7.70;;;;;;;14.17;48.25;98602.16;5109137;28;20027;-72
2024/02/11 00:44:56;;;;;;;15.95;6.53;;;;;;;13.82;51.29;98611.72;5089784;28;20416;-72
2024/02/11 00:47:22;;;;;;;13.48;6.85;;;;;;;13.51;52.97;98617.22;5089360;28;20028;-71
2024/02/11 00:49:47;;;;;;;12.60;6.85;;;;;;;13.22;54.73;98621.53;5089710;28;20024;-71
2024/02/11 00:52:15;;;;;;;13.57;6.72;;;;;;;13.02;56.68;98641.22;5089566;28;20020;-71
2024/02/11 00:54:41;;;;;;;20.38;7.20;;;;;;;12.66;58.77;98626.47;5071470;28;20024;-70
2024/02/11 00:57:07;;;;;;;15.95;7.55;;;;;;;12.60;58.94;98637.19;5082178;28;20481;-71
2024/02/11 00:59:34;;;;;;;13.73;7.35;;;;;;;12.42;60.22;98626.41;5087582;28;20036;-70
2024/02/11 01:02:00;;;;;;;11.95;6.07;;;;;;;12.29;60.68;98644.53;5092690;28;20469;-71
2024/02/11 01:04:26;;;;;;;16.27;7.10;;;;;;;12.10;61.27;98609.72;5092295;28;20028;-70
2024/02/11 01:06:51;;;;;;;15.70;5.95;;;;;;;12.15;59.48;98601.00;5093448;28;20028;-70
2024/02/11 01:09:17;;;;;;;10.68;5.22;;;;;;;12.17;59.70;98621.06;5105820;28;20046;-70
2024/02/11 01:11:42;;;;;;;10.55;5.15;;;;;;;12.26;58.27;98603.22;5112858;28;20062;-71
2024/02/11 01:14:07;;;;;;;9.80;5.78;;;;;;;12.37;58.66;98615.47;5093711;28;20040;-71
2024/02/11 01:16:35;;;;;;;9.32;5.20;;;;;;;12.35;58.56;98604.63;5095129;28;20138;-71
2024/02/11 01:19:00;;;;;;;12.48;5.90;;;;;;;12.22;59.76;98577.91;5113663;28;20385;-70
2024/02/11 01:21:26;;;;;;;10.27;5.45;;;;;;;12.39;55.58;98615.13;5113462;28;20030;-70
2024/02/11 01:23:51;;;;;;;10.52;5.88;;;;;;;12.59;55.44;98599.91;5095198;28;20038;-71
2024/02/11 01:26:17;;;;;;;11.07;6.80;;;;;;;12.58;57.34;98595.47;5112469;28;20020;-70
2024/02/11 01:28:44;;;;;;;16.63;7.45;;;;;;;12.21;61.09;98599.53;5113440;28;20476;-70
2024/02/11 01:31:10;;;;;;;14.52;6.90;;;;;;;11.64;64.04;98571.00;5094627;28;20043;-72
2024/02/11 01:33:35;;;;;;;14.43;6.55;;;;;;;11.66;63.52;98580.66;5094114;28;20549;-71
2024/02/11 01:36:02;;;;;;;11.98;6.80;;;;;;;11.66;62.76;98583.47;5113249;28;20072;-71
2024/02/11 01:38:27;;;;;;;19.10;7.75;;;;;;;11.64;63.21;98587.78;5094139;28;20031;-71
2024/02/11 01:40:53;;;;;;;15.45;7.43;;;;;;;11.66;62.78;98600.28;5094796;28;20420;-71
2024/02/11 01:43:18;;;;;;;16.23;7.25;;;;;;;11.72;63.26;98588.81;5094780;28;20104;-71
2024/02/11 01:45:45;;;;;;;12.32;8.07;;;;;;;11.40;64.53;98549.63;5094802;28;20028;-72
2024/02/11 01:48:11;;;;;;;19.90;7.80;;;;;;;11.44;65.02;98589.72;5092540;28;20032;-72
2024/02/11 01:50:39;;;;;;;19.63;9.80;;;;;;;11.52;63.64;98583.97;5098769;28;20031;-71
2024/02/11 01:53:06;;;;;;;16.55;7.03;;;;;;;11.81;62.10;98586.59;5112973;28;20032;-72
2024/02/11 01:55:33;;;;;;;13.10;5.82;;;;;;;11.78;61.62;98562.94;5094224;28;20123;-71
2024/02/11 01:58:00;;;;;;;10.25;6.18;;;;;;;11.63;62.27;98558.16;5112922;28;20111;-71
2024/02/11 02:00:27;;;;;;;8.18;4.95;;;;;;;11.60;61.74;98579.34;5112772;28;20476;-71
2024/02/11 02:02:55;;;;;;;8.50;4.75;;;;;;;12.06;57.16;98572.34;5098818;28;20043;-71
2024/02/11 02:05:21;;;;;;;12.80;5.65;;;;;;;12.24;56.83;98571.94;5083797;28;20019;-72
2024/02/11 02:07:46;;;;;;;12.40;5.55;;;;;;;12.24;57.61;98572.75;5110241;28;20026;-72
2024/02/11 02:10:13;;;;;;;10.10;5.93;;;;;;;12.29;55.59;98578.06;5112771;28;20818;-71
2024/02/11 02:12:40;;;;;;;10.32;5.35;;;;;;;12.36;56.21;98566.19;5104646;28;20028;-71
2024/02/11 02:15:08;;;;;;;7.30;4.72;;;;;;;12.45;56.24;98554.75;5092185;28;20500;-71
2024/02/11 02:17:35;;;;;;;15.70;5.32;;;;;;;12.20;57.07;98546.63;5074019;28;20032;-72
2024/02/11 02:20:02;;;;;;;11.32;4.93;;;;;;;12.27;56.81;98540.34;5094830;28;20476;-72
2024/02/11 02:22:29;;;;;;;9.70;5.35;;;;;;;12.31;56.64;98528.03;5092295;28;20468;-71
2024/02/11 02:24:55;;;;;;;8.10;4.30;;;;;;;12.33;54.76;98516.47;5091983;28;20028;-71
2024/02/11 02:27:21;;;;;;;6.68;4.40;;;;;;;12.37;55.68;98517.34;5091853;28;20026;-72
2024/02/11 02:29:47;;;;;;;14.68;5.32;;;;;;;12.46;55.79;98526.34;5074090;28;20032;-72
2024/02/11 02:32:13;;;;;;;11.00;4.93;;;;;;;12.42;54.62;98517.03;5092135;28;20070;-71
2024/02/11 02:34:40;;;;;;;16.35;5.25;;;;;;;12.52;54.67;98528.81;5091695;28;20369;-71
2024/02/11 02:37:06;;;;;;;14.90;6.07;;;;;;;12.42;55.29;98536.66;5106175;28;20118;-71
2024/02/11 02:39:32;;;;;;;9.60;5.00;;;;;;;12.33;55.92;98542.50;5092347;28;20463;-71
2024/02/11 02:41:57;;;;;;;15.45;5.20;;;;;;;12.27;56.92;98540.34;5112319;28;20035;-71
2024/02/11 02:44:23;;;;;;;6.93;4.60;;;;;;;12.24;57.48;98544.72;5111892;28;20034;-71
2024/02/11 02:46:48;;;;;;;8.20;4.88;;;;;;;12.13;58.65;98550.09;5111848;28;20020;-71
2024/02/11 02:49:13;;;;;;;14.15;4.60;;;;;;;11.87;59.71;98554.31;5111681;28;20073;-70
2024/02/11 02:51:39;;;;;;;10.48;5.80;;;;;;;11.86;60.52;98554.69;5093410;28;20058;-70
2024/02/11 02:54:05;;;;;;;10.77;4.50;;;;;;;11.64;61.84;98543.81;5108897;28;20103;-71
2024/02/11 02:56:34;;;;;;;9.32;5.18;;;;;;;11.48;62.07;98529.84;5091112;28;20048;-70
2024/02/11 02:59:05;;;;;;;8.38;4.35;;;;;;;11.22;63.73;98511.63;5072997;28;20042;-70
2024/02/11 03:01:31;;;;;;;8.68;5.25;;;;;;;11.17;63.13;98523.13;5091534;28;20039;-70
2024/02/11 03:04:01;;;;;;;14.63;4.47;;;;;;;11.28;63.81;98526.16;5091036;28;20407;-71
2024/02/11 03:06:27;;;;;;;6.38;3.85;;;;;;;11.29;63.16;98508.19;5091135;28;20027;-70
2024/02/11 03:08:52;;;;;;;9.48;4.25;;;;;;;11.37;62.97;98521.19;5100185;28;20044;-70
2024/02/11 03:11:18;;;;;;;12.50;4.95;;;;;;;11.51;61.02;98528.31;5089143;28;20028;-71
2024/02/11 03:13:43;;;;;;;9.30;5.72;;;;;;;11.70;59.95;98505.13;5072501;28;20028;-71
2024/02/11 03:16:10;;;;;;;14.10;5.22;;;;;;;11.91;58.83;98518.78;5072630;28;20456;-71
2024/02/11 03:18:36;;;;;;;10.38;5.43;;;;;;;12.16;58.08;98521.31;5090506;28;20513;-71
2024/02/11 03:21:02;;;;;;;11.48;5.40;;;;;;;12.17;58.12;98522.94;5089802;28;20110;-71
2024/02/11 03:23:27;;;;;;;12.38;4.18;;;;;;;12.16;58.12;98517.72;5092368;28;20023;-70
2024/02/11 03:25:52;;;;;;;6.95;4.85;;;;;;;12.18;58.18;98524.56;5089709;28;20031;-71
2024/02/11 03:28:18;;;;;;;8.48;4.35;;;;;;;12.22;57.99;98513.44;5094555;28;20035;-71
2024/02/11 03:30:43;;;;;;;7.65;4.10;;;;;;;12.21;58.30;98514.63;5092966;28;20066;-71
2024/02/11 03:33:09;;;;;;;9.43;4.40;;;;;;;12.18;58.42;98521.75;5091987;28;20031;-71
2024/02/11 03:35:34;;;;;;;8.20;4.13;;;;;;;12.23;58.66;98514.25;5092713;28;20080;-71
2024/02/11 03:38:00;;;;;;;9.02;3.45;;;;;;;12.41;55.56;98504.19;5091774;28;20031;-71
2024/02/11 03:40:27;;;;;;;7.28;3.47;;;;;;;13.02;52.35;98512.09;5110945;28;20105;-70
2024/02/11 03:42:52;;;;;;;7.82;3.80;;;;;;;13.45;51.38;98528.84;5109848;28;20019;-71
2024/02/11 03:45:19;;;;;;;12.70;3.30;;;;;;;13.70;50.33;98522.81;5092585;28;20035;-71
2024/02/11 03:47:45;;;;;;;11.52;3.88;;;;;;;13.98;49.53;98518.75;5110400;28;20015;-71
2024/02/11 03:50:13;;;;;;;7.80;3.67;;;;;;;14.11;48.93;98508.09;5092403;28;20031;-71
2024/02/11 03:52:39;;;;;;;7.63;3.22;;;;;;;14.20;48.30;98510.59;5110763;28;20027;-71
2024/02/11 03:55:14;;;;;;;9.85;3.78;;;;;;;14.29;48.49;98511.13;5110339;28;20064;-71
2024/02/11 03:57:40;;;;;;;12.00;2.83;;;;;;;14.31;48.62;98508.72;5109781;28;20035;-71
2024/02/11 04:03:03;;;;;;;6.65;3.78;;;;;;;13.67;53.13;98506.72;5079951;28;20493;-71
2024/02/11 04:05:29;;;;;;;8.45;3.40;;;;;;;13.75;50.31;98509.22;5079177;28;20023;-71
2024/02/11 04:07:55;;;;;;;9.40;3.17;;;;;;;14.01;49.91;98515.22;5110410;28;20031;-70
2024/02/11 04:10:22;;;;;;;6.18;3.47;;;;;;;14.31;49.12;98511.53;5111271;28;20019;-69
2024/02/11 04:12:54;;;;;;;5.10;2.75;;;;;;;14.30;48.96;98509.94;5104723;28;20188;-69
2024/02/11 04:15:23;;;;;;;7.70;3.20;;;;;;;14.41;48.67;98519.28;5072380;28;20123;-69
2024/02/11 04:17:49;;;;;;;7.93;3.20;;;;;;;14.41;48.66;98510.03;5083710;28;20572;-69
2024/02/11 04:20:23;;;;;;;8.13;3.72;;;;;;;14.49;48.56;98516.59;5107366;28;20050;-70
2024/02/11 04:22:52;;;;;;;6.00;3.80;;;;;;;14.38;48.50;98514.44;5090974;28;20519;-69
2024/02/11 04:25:20;;;;;;;12.55;3.50;;;;;;;14.44;48.24;98515.72;5110077;28;20030;-70
2024/02/11 04:27:46;;;;;;;5.90;3.17;;;;;;;14.44;48.06;98520.53;5110179;28;20063;-71
2024/02/11 04:30:15;;;;;;;7.20;3.05;;;;;;;14.48;47.96;98512.94;5108723;28;20028;-71
2024/02/11 04:32:41;;;;;;;7.55;3.78;;;;;;;14.56;47.69;98509.03;5071909;28;20032;-70
2024/02/11 04:35:14;;;;;;;9.32;4.32;;;;;;;14.45;48.05;98506.06;5089584;28;20028;-70
2024/02/11 04:37:55;;;;;;;10.88;3.75;;;;;;;14.60;46.96;98517.50;5094063;28;20024;-70
2024/02/11 04:40:21;;;;;;;10.30;3.72;;;;;;;14.58;47.11;98520.69;5093810;28;20039;-70
2024/02/11 04:42:53;;;;;;;8.93;3.90;;;;;;;14.74;47.02;98528.13;5093776;28;20178;-70
2024/02/11 04:45:21;;;;;;;4.18;2.90;;;;;;;14.63;47.25;98516.72;5075404;28;20027;-71
2024/02/11 04:47:53;;;;;;;5.50;2.75;;;;;;;14.66;46.68;98504.69;5093744;28;20024;-70
2024/02/11 04:50:21;;;;;;;17.70;4.38;;;;;;;14.74;46.74;98497.97;5093707;28;20038;-70
2024/02/11 04:52:54;;;;;;;7.43;4.55;;;;;;;14.69;46.41;98500.31;5075337;28;20028;-70
2024/02/11 04:55:38;;;;;;;6.68;3.38;;;;;;;14.63;46.78;98499.03;5093264;28;20480;-70
2024/02/11 04:58:07;;;;;;;8.50;3.42;;;;;;;14.46;47.01;98498.44;5095526;28;20039;-70
2024/02/11 05:00:36;;;;;;;11.77;4.40;;;;;;;14.46;47.16;98518.94;5113860;28;20525;-70
2024/02/11 05:03:06;;;;;;;16.88;5.72;;;;;;;14.46;47.46;98509.72;5098126;28;20092;-71
2024/02/11 05:05:33;;;;;;;11.73;4.40;;;;;;;14.40;47.31;98511.22;5075105;28;20031;-71
2024/02/11 05:08:09;;;;;;;6.47;3.28;;;;;;;14.56;46.57;98511.00;5094210;28;20511;-71
2024/02/11 05:10:37;;;;;;;11.38;4.20;;;;;;;14.54;46.60;98502.97;5094150;28;20028;-71
2024/02/11 05:13:11;;;;;;;12.63;4.40;;;;;;;14.59;46.89;98510.22;5094115;28;20058;-71
2024/02/11 05:15:49;;;;;;;8.63;3.42;;;;;;;14.65;46.44;98519.13;5074944;28;20020;-71
2024/02/11 05:18:15;;;;;;;11.45;4.40;;;;;;;14.72;46.66;98524.88;5092641;28;20115;-71
2024/02/11 05:20:41;;;;;;;16.20;4.88;;;;;;;14.77;46.87;98537.81;5091735;28;20028;-71
2024/02/11 05:23:11;;;;;;;11.63;4.63;;;;;;;14.70;46.97;98535.69;5085605;28;20042;-71
2024/02/11 05:25:40;;;;;;;11.32;4.70;;;;;;;14.74;46.38;98540.19;5093032;28;20444;-71
2024/02/11 05:28:12;;;;;;;9.88;3.72;;;;;;;14.81;46.33;98541.44;5074581;28;20039;-71
2024/02/11 05:30:43;;;;;;;8.70;3.63;;;;;;;14.62;46.75;98519.91;5092990;28;20393;-70
2024/02/11 05:33:10;;;;;;;9.73;4.80;;;;;;;14.66;46.80;98524.38;5093893;28;20075;-70
2024/02/11 05:35:39;;;;;;;7.68;4.18;;;;;;;14.58;46.70;98542.38;5093580;28;20048;-69
2024/02/11 05:38:08;;;;;;;5.90;3.55;;;;;;;14.63;46.51;98552.50;5093055;28;20123;-69
2024/02/11 05:41:20;;;;;;;10.98;5.13;;;;;;;14.73;46.36;98549.84;5092591;28;20523;-69
2024/02/11 05:43:26;;;;;;;11.82;5.38;;;;;;;14.80;46.12;98556.72;5084176;28;20527;-69
2024/02/11 05:45:52;;;;;;;19.90;11.90;;;;;;;14.80;46.66;98548.28;5074373;28;20028;-72
2024/02/11 05:48:17;;;;;;;59.65;52.13;;;;;;;14.76;46.51;98547.44;5092504;28;20031;-71
2024/02/11 05:50:45;;;;;;;8.63;4.53;;;;;;;14.85;46.31;98547.94;5092426;28;20023;-71
2024/02/11 05:53:10;;;;;;;9.07;3.65;;;;;;;14.84;46.43;98546.31;5093891;28;20035;-72
2024/02/11 05:55:38;;;;;;;33.55;20.58;;;;;;;14.91;46.43;98546.38;5089418;28;20051;-71
2024/02/11 05:58:04;;;;;;;17.10;5.20;;;;;;;14.92;46.13;98550.81;5109536;28;20492;-72
2024/02/11 06:00:32;;;;;;;38.95;23.63;;;;;;;14.84;46.64;98557.56;5093397;28;20022;-73
2024/02/11 06:02:58;;;;;;;35.58;14.50;;;;;;;14.73;47.48;98552.66;5090357;28;20118;-73
2024/02/11 06:05:25;;;;;;;15.95;4.95;;;;;;;14.61;47.19;98558.53;5092951;28;20035;-73
2024/02/11 06:07:55;;;;;;;39.67;15.98;;;;;;;14.81;46.26;98559.16;5105496;28;20024;-74
2024/02/11 06:10:22;;;;;;;;;;;;;;;14.91;45.73;98554.84;5103055;28;20039;-72
2024/02/11 06:12:48;;;;;;;7.07;3.63;;;;;;;14.99;45.37;98559.34;5109231;28;19914;-72
2024/02/11 06:15:16;;;;;;;10.02;4.47;;;;;;;15.02;46.00;98572.63;5093493;28;20043;-72
2024/02/11 06:17:41;;;;;;;42.30;19.13;;;;;;;14.82;47.57;98574.03;5088897;28;20495;-70
2024/02/11 06:20:13;;;;;;;16.95;10.13;;;;;;;14.79;47.88;98570.00;5090086;28;20092;-71
2024/02/11 06:22:39;;;;;;;26.27;15.20;;;;;;;14.84;47.42;98577.25;5101215;28;20514;-70
2024/02/11 06:25:05;;;;;;;21.15;8.82;;;;;;;14.64;49.08;98571.81;5104707;28;20557;-71
2024/02/11 06:27:32;;;;;;;32.22;17.38;;;;;;;14.24;49.11;98562.06;5099968;28;20051;-70
2024/02/11 06:29:57;;;;;;;48.03;22.20;;;;;;;14.42;49.16;98563.13;5098081;28;20027;-69
2024/02/11 06:32:23;;;;;;;17.35;7.05;;;;;;;14.57;49.05;98558.47;5100852;28;20465;-70
2024/02/11 06:34:49;;;;;;;9.27;5.18;;;;;;;14.40;49.16;98553.44;5089658;28;20546;-69
2024/02/11 06:37:15;;;;;;;16.30;6.70;;;;;;;14.57;48.28;98563.28;5104034;28;20122;-70
2024/02/11 06:39:41;;;;;;;9.65;5.40;;;;;;;14.70;48.75;98553.38;5083314;28;20032;-70
2024/02/11 06:42:09;;;;;;;69.03;42.33;;;;;;;14.78;48.31;98547.88;5095256;28;20038;-68
2024/02/11 06:44:38;;;;;;;16.15;10.00;;;;;;;14.72;48.02;98556.66;5104266;28;20667;-69
2024/02/11 06:47:06;;;;;;;8.13;5.13;;;;;;;14.79;47.34;98539.03;5082331;28;20032;-68
2024/02/11 06:49:34;;;;;;;15.73;5.82;;;;;;;14.88;46.73;98544.34;5099451;28;20554;-69
2024/02/11 06:52:00;;;;;;;13.27;5.85;;;;;;;15.07;45.67;98548.13;5083061;28;20397;-69
2024/02/11 06:54:27;;;;;;;56.78;40.83;;;;;;;15.15;46.17;98542.19;5092865;28;20583;-68
2024/02/11 06:56:53;;;;;;;15.57;6.10;;;;;;;15.29;46.64;98554.78;5085660;28;20524;-69
2024/02/11 06:59:19;;;;;;;9.23;4.90;;;;;;;15.38;46.48;98554.44;5084497;28;20039;-70
2024/02/11 07:01:45;;;;;;;10.55;6.20;;;;;;;15.51;46.98;98541.66;5086200;28;20019;-68
2024/02/11 07:04:12;;;;;;;8.10;4.00;;;;;;;15.72;45.66;98540.22;5104330;28;20023;-69
2024/02/11 07:06:47;;;;;;;5.47;3.20;;;;;;;16.04;44.84;98531.13;5078737;28;20560;-69
2024/02/11 07:09:13;;;;;;;9.55;3.35;;;;;;;16.34;44.82;98532.91;5085638;28;20097;-71
2024/02/11 07:11:40;;;;;;;10.77;3.78;;;;;;;16.39;45.09;98532.50;5085219;28;20103;-70
2024/02/11 07:14:07;;;;;;;6.57;3.30;;;;;;;16.24;45.91;98537.31;5086353;28;20062;-68
2024/02/11 07:16:37;;;;;;;17.55;5.38;;;;;;;16.24;46.20;98536.47;5105275;28;20036;-73
2024/02/11 07:19:04;;;;;;;16.00;4.53;;;;;;;16.15;46.37;98548.13;5088926;28;20057;-72
2024/02/11 07:21:31;;;;;;;8.43;3.10;;;;;;;16.10;46.31;98542.84;5105495;28;20023;-72
2024/02/11 07:23:57;;;;;;;6.68;2.42;;;;;;;16.06;46.69;98553.31;5107177;28;20034;-70
2024/02/11 07:26:22;;;;;;;12.88;3.58;;;;;;;16.08;46.74;98543.25;5106591;28;20034;-69
2024/02/11 07:28:48;;;;;;;6.57;3.30;;;;;;;16.11;46.81;98550.13;5106585;28;20031;-70
2024/02/11 07:31:15;;;;;;;14.15;3.95;;;;;;;16.10;47.56;98540.84;5103206;28;20030;-72
2024/02/11 07:33:41;;;;;;;11.85;4.78;;;;;;;16.24;46.90;98547.75;5071260;28;20093;-73
2024/02/11 07:36:07;;;;;;;13.02;4.20;;;;;;;16.21;47.02;98557.81;5087753;28;20028;-69
2024/02/11 07:38:33;;;;;;;13.75;3.90;;;;;;;16.19;46.64;98546.13;5088012;28;20028;-71
2024/02/11 07:40:58;;;;;;;7.13;3.53;;;;;;;16.22;47.20;98553.00;5087868;28;20032;-74
2024/02/11 07:43:25;;;;;;;9.45;4.18;;;;;;;16.26;47.30;98567.91;5101461;28;20031;-72
2024/02/11 07:45:52;;;;;;;5.82;4.25;;;;;;;16.18;47.47;98557.81;5095514;28;20043;-73
2024/02/11 07:48:19;;;;;;;10.57;4.90;;;;;;;16.19;47.28;98556.63;5103620;28;20039;-74
2024/02/11 07:50:44;;;;;;;9.98;4.18;;;;;;;16.11;47.09;98545.28;5085550;28;20031;-73
2024/02/11 07:53:10;;;;;;;13.93;3.70;;;;;;;16.22;46.98;98550.19;5106832;28;20043;-69
2024/02/11 07:55:35;;;;;;;9.50;3.70;;;;;;;16.26;47.18;98546.16;5087548;28;20050;-72
2024/02/11 07:58:01;;;;;;;13.05;5.88;;;;;;;16.22;47.14;98556.59;5086560;28;20077;-75
2024/02/11 08:00:31;;;;;;;9.70;3.83;;;;;;;16.19;47.22;98563.06;5089279;28;20056;-72
2024/02/11 08:02:57;;;;;;;7.60;2.33;;;;;;;16.07;47.37;98555.75;5090624;28;20027;-69
2024/02/11 08:05:22;;;;;;;9.90;2.25;;;;;;;16.07;46.77;98550.13;5105766;28;20429;-70
2024/02/11 08:07:48;;;;;;;6.50;1.95;;;;;;;16.04;47.22;98562.16;5077645;28;20590;-73
2024/02/11 08:10:13;;;;;;;3.78;2.22;;;;;;;15.99;48.18;98577.47;5098427;28;20549;-69
2024/02/11 08:12:39;;;;;;;7.90;4.40;;;;;;;16.02;47.84;98575.84;5106515;28;20106;-69
2024/02/11 08:15:04;;;;;;;3.95;1.90;;;;;;;16.04;47.22;98579.09;5081436;28;20030;-70
2024/02/11 08:17:30;;;;;;;3.70;1.90;;;;;;;16.09;46.89;98556.16;5105094;28;20031;-71
2024/02/11 08:19:55;;;;;;;60.80;31.63;;;;;;;16.25;46.77;98557.84;5104343;28;20076;-69
2024/02/11 08:22:21;;;;;;;26.58;13.13;;;;;;;16.29;46.05;98561.50;5080337;28;20024;-69
2024/02/11 08:24:46;;;;;;;6.13;2.33;;;;;;;16.48;44.80;98545.44;5086048;28;20566;-71
2024/02/11 08:27:12;;;;;;;42.90;21.08;;;;;;;16.54;45.38;98546.69;5091447;28;20019;-70
2024/02/11 08:29:38;;;;;;;11.13;5.95;;;;;;;16.53;45.65;98542.22;5099578;28;20032;-70
2024/02/11 08:32:04;;;;;;;15.95;8.40;;;;;;;16.55;45.53;98542.66;5093242;28;20024;-68
2024/02/11 08:34:31;;;;;;;6.95;2.85;;;;;;;16.57;45.60;98548.69;5074547;28;20034;-70
2024/02/11 08:36:56;;;;;;;5.35;2.60;;;;;;;16.60;44.90;98539.44;5097406;28;20046;-71
2024/02/11 08:39:25;;;;;;;12.18;3.42;;;;;;;16.58;45.42;98530.56;5092515;28;20038;-72
2024/02/11 08:41:52;;;;;;;28.35;12.93;;;;;;;16.73;44.63;98517.28;5101802;28;20046;-69
2024/02/11 08:44:18;;;;;;;10.88;3.90;;;;;;;16.70;44.27;98524.53;5083646;28;20031;-72
2024/02/11 08:46:44;;;;;;;11.75;4.30;;;;;;;16.64;45.31;98528.94;5088351;28;20033;-72
2024/02/11 08:49:09;;;;;;;6.43;3.45;;;;;;;16.66;44.96;98532.19;5089611;28;20508;-72
2024/02/11 08:51:38;;;;;;;9.80;3.50;;;;;;;16.77;45.09;98518.09;5102952;28;20500;-72
2024/02/11 08:54:04;;;;;;;9.52;2.72;;;;;;;16.73;44.91;98516.47;5105454;28;20020;-71
2024/02/11 08:56:31;;;;;;;11.43;4.85;;;;;;;16.73;45.18;98522.94;5087303;28;20035;-71
2024/02/11 08:58:56;;;;;;;15.48;5.38;;;;;;;16.92;44.65;98524.59;5106599;28;20028;-71
2024/02/11 09:01:22;;;;;;;8.75;3.47;;;;;;;16.73;45.04;98522.94;5105101;28;20035;-70
2024/02/11 09:03:48;;;;;;;28.67;19.08;;;;;;;16.89;45.04;98522.53;5081988;28;20027;-70
2024/02/11 09:06:14;;;;;;;17.20;9.75;;;;;;;16.80;45.16;98524.97;5103697;28;20487;-70
2024/02/11 09:08:40;;;;;;;18.55;9.45;;;;;;;16.86;45.07;98522.56;5087947;28;20596;-70
2024/02/11 09:11:06;;;;;;;22.90;11.20;;;;;;;16.86;44.78;98531.81;5099292;28;20024;-70
2024/02/11 09:13:34;;;;;;;37.63;21.15;;;;;;;16.84;44.43;98537.88;5106763;28;20019;-71
2024/02/11 09:16:01;;;;;;;19.40;6.55;;;;;;;16.88;44.29;98526.56;5093513;28;20015;-71
2024/02/11 09:18:26;;;;;;;80.85;45.45;;;;;;;16.95;44.38;98528.59;5097945;28;20092;-71
2024/02/11 09:20:52;;;;;;;24.73;16.77;;;;;;;16.88;44.55;98537.88;5099039;28;20592;-71
2024/02/11 09:23:17;;;;;;;24.02;13.82;;;;;;;16.84;45.33;98539.88;5080637;28;20597;-71
2024/02/11 09:25:44;;;;;;;11.38;4.78;;;;;;;16.80;45.32;98541.91;5101750;28;20019;-71
2024/02/11 09:28:10;;;;;;;13.70;5.82;;;;;;;16.79;45.72;98538.25;5090033;28;20411;-71
2024/02/11 09:30:38;;;;;;;9.20;5.78;;;;;;;16.73;46.11;98542.72;5100485;28;20035;-70
2024/02/11 09:33:03;;;;;;;8.98;4.15;;;;;;;16.73;46.18;98544.72;5110416;28;20043;-71
2024/02/11 09:35:28;;;;;;;18.42;5.30;;;;;;;16.67;46.90;98536.63;5110356;28;20023;-70
2024/02/11 09:37:54;;;;;;;7.00;3.40;;;;;;;16.78;46.47;98530.22;5110271;28;20511;-69
2024/02/11 09:40:19;;;;;;;8.48;4.63;;;;;;;16.68;46.84;98521.31;5108849;28;20385;-70
2024/02/11 09:42:46;;;;;;;14.90;2.70;;;;;;;16.77;47.20;98505.97;5107585;28;20503;-70
2024/02/11 09:45:18;;;;;;;6.22;2.85;;;;;;;16.75;47.29;98519.69;5098727;28;20083;-70
2024/02/11 09:47:47;;;;;;;4.20;1.90;;;;;;;16.76;46.76;98515.66;5106323;28;20066;-69
2024/02/11 09:50:15;;;;;;;9.10;2.08;;;;;;;16.79;46.41;98526.19;5087188;28;20019;-69
2024/02/11 09:52:40;;;;;;;7.72;2.58;;;;;;;16.75;46.69;98516.88;5100256;28;20115;-70
2024/02/11 09:55:09;;;;;;;4.38;2.63;;;;;;;16.58;47.14;98521.28;5099117;28;20028;-69
2024/02/11 09:57:35;;;;;;;20.42;10.27;;;;;;;16.59;47.42;98509.59;5066962;28;20055;-70
2024/02/11 10:00:01;;;;;;;35.05;3.92;;;;;;;16.61;47.47;98510.00;5066321;28;20024;-69
2024/02/11 10:02:28;;;;;;;5.22;2.03;;;;;;;16.66;46.86;98500.31;5062574;28;20081;-70
2024/02/11 10:04:59;;;;;;;17.13;12.82;;;;;;;16.76;47.07;98502.38;5063848;28;20043;-70
2024/02/11 10:07:27;;;;;;;13.45;5.35;;;;;;;16.80;46.73;98493.91;5067190;28;20662;-69
2024/02/11 10:09:59;;;;;;;87.63;41.80;;;;;;;16.83;46.93;98479.81;5067843;28;20028;-70
2024/02/11 10:12:26;;;;;;;53.10;26.42;;;;;;;16.93;46.47;98492.31;5068200;28;20028;-70
2024/02/11 10:14:57;;;;;;;38.40;19.42;;;;;;;16.87;46.78;98488.25;5067876;28;20028;-70
2024/02/11 10:17:23;;;;;;;64.00;33.17;;;;;;;16.83;46.47;98493.09;5068614;28;20028;-70
2024/02/11 10:19:53;;;;;;;104.93;52.03;;;;;;;16.84;46.37;98475.75;5064388;28;20120;-70
2024/02/11 10:22:20;;;;;;;11.35;6.07;;;;;;;16.86;46.16;98475.34;5065995;28;20492;-69
2024/02/11 10:24:49;;;;;;;87.15;54.72;;;;;;;16.87;46.34;98476.94;5066105;28;20046;-69
2024/02/11 10:27:17;;;;;;;8.35;5.20;;;;;;;17.01;45.80;98473.38;5065216;28;20032;-69
2024/02/11 10:29:44;;;;;;;8.85;3.25;;;;;;;17.17;45.99;98458.03;5067510;28;20512;-69
2024/02/11 10:32:13;;;;;;;16.08;6.82;;;;;;;17.21;45.73;98456.81;5065334;28;20020;-70
2024/02/11 10:34:43;;;;;;;14.00;3.15;;;;;;;17.18;45.20;98440.69;5066160;28;20056;-69
2024/02/11 10:37:15;;;;;;;6.18;2.92;;;;;;;17.16;45.00;98434.63;5065776;28;20020;-69
2024/02/11 10:39:43;;;;;;;8.75;2.78;;;;;;;17.22;45.65;98433.00;5066637;28;20028;-69
2024/02/11 10:42:11;;;;;;;13.68;7.07;;;;;;;17.23;45.68;98433.81;5062914;28;20075;-70
2024/02/11 10:44:38;;;;;;;11.43;3.22;;;;;;;16.97;45.82;98428.16;5066341;28;20023;-69
2024/02/11 10:47:07;;;;;;;6.35;2.13;;;;;;;16.97;46.59;98430.97;5065526;28;20020;-69
2024/02/11 10:49:33;;;;;;;14.07;6.05;;;;;;;17.08;46.49;98442.31;5067003;28;20032;-69
2024/02/11 10:52:05;;;;;;;7.18;3.25;;;;;;;17.02;45.78;98421.31;5062085;28;20115;-71
2024/02/11 10:54:41;;;;;;;21.90;14.32;;;;;;;17.03;45.71;98411.63;5066956;28;20019;-71
2024/02/11 10:57:19;;;;;;;10.25;3.85;;;;;;;17.19;45.63;98418.88;5080862;28;20049;-70
2024/02/11 10:59:59;;;;;;;22.38;13.70;;;;;;;17.23;45.07;98412.00;5078829;28;20026;-71
2024/02/11 11:02:31;;;;;;;18.33;5.93;;;;;;;17.40;45.10;98418.03;5103455;28;20111;-71
2024/02/11 11:05:08;;;;;;;12.20;3.75;;;;;;;17.45;44.99;98423.28;5097530;28;20042;-70
2024/02/11 11:07:38;;;;;;;23.73;21.35;;;;;;;17.38;44.90;98403.53;5091132;28;20120;-69
2024/02/11 11:10:10;;;;;;;10.73;3.70;;;;;;;17.43;45.19;98391.78;5079748;28;20049;-70
2024/02/11 11:12:37;;;;;;;7.43;2.22;;;;;;;17.58;45.10;98405.88;5082553;28;20097;-71
2024/02/11 11:15:08;;;;;;;12.00;9.35;;;;;;;17.50;45.10;98397.44;5092335;28;20049;-71
2024/02/11 11:17:35;;;;;;;17.10;6.88;;;;;;;17.68;45.13;98393.72;5090784;28;20031;-70
2024/02/11 11:20:01;;;;;;;12.63;6.88;;;;;;;17.46;44.87;98387.34;5099907;28;20511;-70
2024/02/11 11:22:28;;;;;;;7.88;2.75;;;;;;;17.39;45.28;98399.47;5101635;28;20028;-70
2024/02/11 11:24:57;;;;;;;16.80;4.15;;;;;;;17.38;45.24;98376.03;5102139;28;20036;-72
2024/02/11 11:27:24;;;;;;;12.93;2.43;;;;;;;17.47;45.33;98378.44;5074657;28;20407;-70
2024/02/11 11:29:52;;;;;;;15.07;11.25;;;;;;;17.57;44.63;98385.28;5087150;28;20024;-71